createdAt,value
2023-02-09T00:00:08.018Z,40.53
2023-02-09T00:02:35.234Z,43.70
2023-02-09T00:05:02.147Z,31.85
2023-02-09T00:07:29.081Z,37.35
2023-02-09T00:09:56.238Z,35.28
2023-02-09T00:12:41.542Z,37.75
2023-02-09T00:15:08.756Z,38.47
2023-02-09T00:17:37.339Z,30.62
2023-02-09T00:20:06.170Z,40.55
2023-02-09T00:22:33.433Z,48.25
2023-02-09T00:25:00.674Z,32.00
2023-02-09T00:27:27.781Z,37.55
2023-02-09T00:29:54.658Z,36.08
2023-02-09T00:32:22.496Z,45.28
2023-02-09T00:34:49.639Z,46.70
2023-02-09T00:37:16.749Z,44.22
2023-02-09T00:39:43.802Z,56.00
2023-02-09T00:42:11.400Z,40.83
2023-02-09T00:44:40.588Z,37.85
2023-02-09T00:47:09.221Z,42.08
2023-02-09T00:49:36.533Z,40.53
2023-02-09T00:52:04.033Z,31.50
2023-02-09T00:54:30.882Z,37.03
2023-02-09T00:57:05.272Z,39.88
2023-02-09T00:59:34.389Z,34.85
2023-02-09T01:02:01.558Z,33.13
2023-02-09T01:04:28.700Z,34.25
2023-02-09T01:06:55.742Z,31.90
2023-02-09T01:09:22.595Z,41.00
2023-02-09T01:11:49.552Z,41.03
2023-02-09T01:14:17.410Z,43.42
2023-02-09T01:16:44.574Z,37.40
2023-02-09T01:19:13.959Z,35.58
2023-02-09T01:21:41.180Z,34.88
2023-02-09T01:24:08.407Z,35.80
2023-02-09T01:26:35.301Z,34.03
2023-02-09T01:29:02.396Z,30.00
2023-02-09T01:31:35.005Z,31.50
2023-02-09T01:34:04.081Z,36.17
2023-02-09T01:36:32.319Z,31.55
2023-02-09T01:39:01.766Z,30.37
2023-02-09T01:41:29.535Z,33.08
2023-02-09T01:43:59.441Z,30.80
2023-02-09T01:46:29.017Z,29.63
2023-02-09T01:51:31.036Z,26.65
2023-02-09T01:53:58.298Z,30.77
2023-02-09T01:56:30.352Z,25.55
2023-02-09T01:58:58.143Z,32.10
2023-02-09T02:01:25.449Z,30.08
2023-02-09T02:03:54.314Z,26.52
2023-02-09T02:06:21.475Z,28.73
2023-02-09T02:09:00.984Z,34.10
2023-02-09T02:11:29.941Z,24.67
2023-02-09T02:13:58.020Z,29.55
2023-02-09T02:16:52.152Z,30.25
2023-02-09T02:20:01.095Z,26.45
2023-02-09T02:22:43.304Z,34.58
2023-02-09T02:25:47.250Z,30.08
2023-02-09T02:29:06.136Z,25.48
2023-02-09T02:31:57.722Z,23.65
2023-02-09T02:34:49.106Z,22.52
2023-02-09T02:37:38.773Z,21.12
2023-02-09T02:40:22.631Z,19.83
2023-02-09T02:42:58.146Z,25.73
2023-02-09T02:45:41.779Z,25.33
2023-02-09T02:48:25.916Z,26.55
2023-02-09T02:51:26.555Z,24.25
2023-02-09T02:53:58.038Z,21.52
2023-02-09T02:56:39.396Z,25.08
2023-02-09T02:59:11.389Z,24.25
2023-02-09T03:01:46.657Z,25.25
2023-02-09T03:04:15.467Z,17.12
2023-02-09T03:06:42.698Z,22.30
2023-02-09T03:09:10.127Z,25.90
2023-02-09T03:11:42.839Z,27.30
2023-02-09T03:14:34.219Z,24.17
2023-02-09T03:17:03.941Z,24.08
2023-02-09T03:19:58.275Z,23.50
2023-02-09T03:22:37.476Z,23.15
2023-02-09T03:25:17.683Z,23.53
2023-02-09T03:27:49.717Z,23.60
2023-02-09T03:30:18.307Z,28.87
2023-02-09T03:32:47.017Z,21.67
2023-02-09T03:35:20.543Z,27.05
2023-02-09T03:37:47.418Z,25.48
2023-02-09T03:40:14.335Z,29.70
2023-02-09T03:42:41.403Z,37.88
2023-02-09T03:45:08.707Z,43.20
2023-02-09T03:47:35.673Z,27.10
2023-02-09T03:50:02.697Z,38.58
2023-02-09T03:52:31.169Z,36.40
2023-02-09T03:54:58.100Z,35.25
2023-02-09T03:57:25.208Z,37.60
2023-02-09T03:59:52.165Z,30.92
2023-02-09T04:02:19.102Z,36.58
2023-02-09T04:04:46.138Z,28.40
2023-02-09T04:07:14.088Z,27.95
2023-02-09T04:09:41.071Z,31.77
2023-02-09T04:12:08.036Z,28.55
2023-02-09T04:14:35.138Z,24.85
2023-02-09T04:17:02.221Z,27.50
2023-02-09T04:19:29.092Z,36.75
2023-02-09T04:21:55.975Z,27.65
2023-02-09T04:24:22.881Z,28.95
2023-02-09T04:26:49.909Z,25.17
2023-02-09T04:29:16.811Z,21.83
2023-02-09T04:31:44.141Z,24.65
2023-02-09T04:34:11.071Z,25.60
2023-02-09T04:36:38.046Z,31.02
2023-02-09T04:39:05.119Z,24.00
2023-02-09T04:41:32.067Z,30.67
2023-02-09T04:43:58.957Z,25.90
2023-02-09T04:46:25.961Z,28.67
2023-02-09T04:48:52.876Z,33.05
2023-02-09T04:51:19.769Z,27.30
2023-02-09T04:53:46.724Z,29.35
2023-02-09T04:56:15.608Z,32.33
2023-02-09T04:59:02.298Z,36.30
2023-02-09T05:01:30.200Z,29.30
2023-02-09T05:03:57.283Z,27.98
2023-02-09T05:06:24.365Z,25.48
2023-02-09T05:08:51.339Z,37.22
2023-02-09T05:11:18.214Z,34.47
2023-02-09T05:13:45.248Z,26.67
2023-02-09T05:16:15.911Z,27.58
2023-02-09T05:18:42.963Z,32.60
2023-02-09T05:21:09.832Z,36.13
2023-02-09T05:23:36.903Z,28.20
2023-02-09T05:26:03.988Z,33.85
2023-02-09T05:28:31.374Z,28.95
2023-02-09T05:30:58.414Z,25.60
2023-02-09T05:33:26.388Z,30.70
2023-02-09T05:35:56.099Z,25.10
2023-02-09T05:38:23.745Z,26.48
2023-02-09T05:40:51.039Z,25.67
2023-02-09T05:43:18.148Z,36.90
2023-02-09T05:45:46.277Z,39.35
2023-02-09T05:48:13.615Z,27.27
2023-02-09T05:50:40.508Z,37.05
2023-02-09T05:53:08.778Z,32.15
2023-02-09T05:55:35.759Z,30.00
2023-02-09T05:58:02.742Z,38.50
2023-02-09T06:00:30.113Z,31.17
2023-02-09T06:02:57.304Z,34.72
2023-02-09T06:05:24.698Z,37.72
2023-02-09T06:07:51.696Z,43.13
2023-02-09T06:10:19.658Z,31.52
2023-02-09T06:12:46.867Z,36.30
2023-02-09T06:15:16.573Z,36.95
2023-02-09T06:17:46.549Z,40.95
2023-02-09T06:20:13.596Z,36.08
2023-02-09T06:22:40.584Z,58.80
2023-02-09T06:25:08.030Z,63.53
2023-02-09T06:27:35.809Z,41.75
2023-02-09T06:30:02.945Z,56.67
2023-02-09T06:32:30.039Z,51.37
2023-02-09T06:34:56.959Z,58.03
2023-02-09T06:37:23.932Z,54.33
2023-02-09T06:39:50.994Z,60.88
2023-02-09T06:45:44.394Z,69.20
2023-02-09T07:04:02.664Z,74.12
2023-02-09T07:11:01.189Z,86.78
2023-02-09T07:13:28.603Z,100.97
2023-02-09T07:15:59.211Z,108.10
2023-02-09T07:18:33.126Z,104.25
2023-02-09T07:21:06.281Z,116.95
2023-02-09T07:24:03.972Z,143.90
2023-02-09T07:26:35.021Z,108.18
2023-02-09T07:29:33.590Z,107.53
2023-02-09T07:32:00.016Z,102.15
2023-02-09T07:34:27.537Z,94.70
2023-02-09T07:37:04.462Z,90.97
2023-02-09T07:39:38.411Z,115.78
2023-02-09T07:42:05.964Z,126.40
2023-02-09T07:44:33.254Z,126.43
2023-02-09T07:47:01.472Z,105.75
2023-02-09T07:49:29.245Z,112.15
2023-02-09T07:51:56.979Z,93.82
2023-02-09T07:54:31.774Z,93.68
2023-02-09T07:57:09.736Z,100.22
2023-02-09T07:59:39.523Z,89.75
2023-02-09T08:02:12.990Z,81.35
2023-02-09T08:04:40.046Z,79.18
2023-02-09T08:07:07.200Z,82.03
2023-02-09T08:09:34.323Z,70.72
2023-02-09T08:12:06.437Z,70.07
2023-02-09T08:14:44.778Z,72.15
2023-02-09T08:17:20.608Z,78.93
2023-02-09T08:20:01.334Z,80.12
2023-02-09T08:22:32.052Z,65.00
2023-02-09T08:25:00.885Z,63.30
2023-02-09T08:27:28.513Z,55.58
2023-02-09T08:29:55.582Z,63.72
2023-02-09T08:32:31.924Z,70.35
2023-02-09T08:34:59.211Z,70.32
2023-02-09T08:37:26.349Z,51.78
2023-02-09T08:39:53.403Z,63.03
2023-02-09T08:42:20.327Z,54.15
2023-02-09T08:44:47.244Z,59.55
2023-02-09T08:47:14.199Z,51.28
2023-02-09T08:49:41.812Z,57.85
2023-02-09T08:52:09.569Z,48.08
2023-02-09T08:54:40.153Z,58.22
2023-02-09T08:57:09.823Z,38.20
2023-02-09T08:59:38.957Z,39.88
2023-02-09T09:02:07.429Z,41.47
2023-02-09T09:04:36.404Z,40.03
2023-02-09T09:07:07.912Z,24.70
2023-02-09T09:09:40.381Z,25.95
2023-02-09T09:12:07.438Z,27.27
2023-02-09T09:14:35.031Z,29.65
2023-02-09T09:17:02.220Z,25.27
2023-02-09T09:19:29.580Z,31.23
2023-02-09T09:21:58.863Z,27.35
2023-02-09T09:24:28.967Z,27.13
2023-02-09T09:26:56.443Z,29.12
2023-02-09T09:29:24.207Z,35.53
2023-02-09T09:31:51.377Z,24.02
2023-02-09T09:34:18.666Z,24.52
2023-02-09T09:36:46.392Z,29.23
2023-02-09T09:39:13.749Z,26.90
2023-02-09T09:41:41.033Z,25.25
2023-02-09T09:44:26.234Z,26.27
2023-02-09T09:46:54.662Z,23.95
2023-02-09T09:49:28.777Z,27.17
2023-02-09T09:52:23.014Z,18.25
2023-02-09T09:54:50.308Z,22.85
2023-02-09T09:57:25.144Z,21.42
2023-02-09T09:59:53.584Z,21.83
2023-02-09T10:02:33.503Z,20.00
2023-02-09T10:05:22.719Z,20.77
2023-02-09T10:07:55.973Z,18.60
2023-02-09T10:10:49.185Z,16.87
2023-02-09T10:13:24.775Z,17.73
2023-02-09T10:15:54.741Z,19.85
2023-02-09T10:18:25.720Z,23.70
2023-02-09T10:21:17.099Z,21.12
2023-02-09T10:24:02.927Z,21.05
2023-02-09T10:26:40.833Z,21.62
2023-02-09T10:29:13.952Z,32.28
2023-02-09T10:31:43.879Z,27.65
2023-02-09T10:34:19.006Z,21.05
2023-02-09T10:36:55.904Z,19.15
2023-02-09T10:39:35.811Z,20.88
2023-02-09T10:44:57.679Z,19.33
2023-02-09T10:47:31.087Z,21.67
2023-02-09T10:50:14.250Z,26.85
2023-02-09T10:53:15.085Z,15.90
2023-02-09T10:55:42.726Z,19.62
2023-02-09T10:58:09.729Z,20.27
2023-02-09T11:00:42.730Z,24.90
2023-02-09T11:03:22.623Z,24.20
2023-02-09T11:08:34.311Z,22.17
2023-02-09T11:11:07.376Z,28.25
2023-02-09T11:13:35.565Z,28.48
2023-02-09T11:16:16.155Z,17.87
2023-02-09T11:18:49.635Z,24.33
2023-02-09T11:22:04.428Z,21.23
2023-02-09T11:24:50.151Z,17.25
2023-02-09T11:27:40.267Z,20.15
2023-02-09T11:30:20.136Z,19.75
2023-02-09T11:35:24.761Z,18.90
2023-02-09T11:37:56.571Z,20.83
2023-02-09T11:40:46.359Z,19.70
2023-02-09T11:48:35.038Z,19.75
2023-02-09T11:51:19.450Z,17.02
2023-02-09T11:54:04.849Z,14.63
2023-02-09T11:56:41.992Z,16.95
2023-02-09T11:59:17.791Z,17.83
2023-02-09T12:02:23.874Z,17.40
2023-02-09T12:05:02.074Z,16.15
2023-02-09T12:07:52.786Z,19.52
2023-02-09T12:10:45.412Z,19.25
2023-02-09T12:14:01.643Z,19.23
2023-02-09T12:16:45.421Z,20.62
2023-02-09T12:19:39.044Z,17.73
2023-02-09T12:22:34.850Z,17.17
2023-02-09T12:25:25.444Z,10.40
2023-02-09T12:28:13.186Z,13.65
2023-02-09T12:30:47.740Z,12.77
2023-02-09T12:33:23.051Z,11.80
2023-02-09T12:36:08.796Z,16.52
2023-02-09T12:38:56.004Z,15.13
2023-02-09T12:41:53.962Z,13.27
2023-02-09T12:44:21.082Z,12.82
2023-02-09T12:46:56.025Z,16.10
2023-02-09T12:49:29.670Z,15.40
2023-02-09T12:52:13.391Z,14.77
2023-02-09T12:55:05.766Z,13.68
2023-02-09T12:57:50.634Z,15.13
2023-02-09T13:00:19.091Z,13.82
2023-02-09T13:02:57.368Z,12.88
2023-02-09T13:05:28.528Z,14.68
2023-02-09T13:08:22.984Z,13.62
2023-02-09T13:11:14.626Z,13.15
2023-02-09T13:13:58.168Z,17.05
2023-02-09T13:16:25.347Z,13.23
2023-02-09T13:19:03.409Z,13.95
2023-02-09T13:21:49.310Z,14.30
2023-02-09T13:24:45.845Z,14.70
2023-02-09T13:27:22.199Z,13.40
2023-02-09T13:29:53.983Z,13.35
2023-02-09T13:32:35.486Z,17.55
2023-02-09T13:35:44.526Z,15.13
2023-02-09T13:38:18.097Z,11.30
2023-02-09T13:40:50.758Z,15.35
2023-02-09T13:43:28.697Z,14.00
2023-02-09T13:45:57.198Z,13.93
2023-02-09T13:48:33.254Z,27.23
2023-02-09T13:51:02.965Z,16.58
2023-02-09T13:53:38.571Z,17.65
2023-02-09T13:56:12.441Z,12.60
2023-02-09T13:58:41.045Z,15.48
2023-02-09T14:01:17.341Z,16.27
2023-02-09T14:03:58.274Z,17.55
2023-02-09T14:06:44.818Z,14.73
2023-02-09T14:09:38.621Z,22.48
2023-02-09T14:12:16.152Z,12.73
2023-02-09T14:15:09.185Z,23.33
2023-02-09T14:17:38.087Z,12.20
2023-02-09T14:20:20.027Z,16.13
2023-02-09T14:22:56.634Z,19.98
2023-02-09T14:25:34.158Z,18.02
2023-02-09T14:28:03.914Z,17.58
2023-02-09T14:33:04.293Z,14.10
2023-02-09T14:35:39.284Z,15.70
2023-02-09T14:38:40.091Z,13.52
2023-02-09T14:41:32.909Z,10.88
2023-02-09T14:44:14.460Z,13.80
2023-02-09T14:46:57.409Z,11.93
2023-02-09T14:49:26.176Z,14.55
2023-02-09T14:52:15.092Z,15.10
2023-02-09T14:54:48.595Z,12.80
2023-02-09T14:57:16.005Z,12.20
2023-02-09T14:59:48.337Z,16.70
2023-02-09T15:02:30.116Z,12.68
2023-02-09T15:04:59.377Z,12.63
2023-02-09T15:07:35.769Z,14.07
2023-02-09T15:10:10.405Z,14.25
2023-02-09T15:13:01.942Z,12.02
2023-02-09T15:15:38.916Z,16.77
2023-02-09T15:18:22.595Z,14.95
2023-02-09T15:21:13.000Z,15.35
2023-02-09T15:24:03.009Z,15.35
2023-02-09T15:26:35.359Z,13.13
2023-02-09T15:29:02.514Z,13.68
2023-02-09T15:31:29.804Z,11.68
2023-02-09T15:33:56.870Z,14.10
2023-02-09T15:36:39.595Z,14.10
2023-02-09T15:39:19.223Z,14.40
2023-02-09T15:42:10.530Z,13.57
2023-02-09T15:44:56.150Z,13.85
2023-02-09T15:47:43.723Z,16.35
2023-02-09T15:50:10.693Z,10.52
2023-02-09T15:52:39.850Z,13.07
2023-02-09T15:55:07.721Z,14.13
2023-02-09T15:57:34.815Z,12.63
2023-02-09T16:00:01.854Z,14.23
2023-02-09T16:02:28.846Z,18.20
2023-02-09T16:04:55.975Z,16.00
2023-02-09T16:07:26.656Z,11.80
2023-02-09T16:09:55.913Z,19.33
2023-02-09T16:12:23.023Z,17.17
2023-02-09T16:14:52.303Z,17.25
2023-02-09T16:17:20.013Z,18.45
2023-02-09T16:19:49.210Z,15.73
2023-02-09T16:22:19.931Z,18.77
2023-02-09T16:24:47.678Z,15.77
2023-02-09T16:27:23.565Z,16.77
2023-02-09T16:29:51.005Z,15.18
2023-02-09T16:32:22.188Z,16.20
2023-02-09T16:34:51.764Z,19.60
2023-02-09T16:37:31.526Z,14.68
2023-02-09T16:39:59.029Z,25.98
2023-02-09T16:42:26.030Z,21.87
2023-02-09T16:44:53.443Z,18.33
2023-02-09T16:47:28.854Z,20.88
2023-02-09T16:50:02.907Z,15.40
2023-02-09T16:52:30.505Z,15.10
2023-02-09T16:55:04.625Z,18.30
2023-02-09T16:57:31.877Z,17.90
2023-02-09T16:59:58.803Z,21.60
2023-02-09T17:02:31.434Z,22.87
2023-02-09T17:04:59.213Z,23.40
2023-02-09T17:07:45.436Z,12.50
2023-02-09T17:10:22.061Z,20.90
2023-02-09T17:12:53.255Z,30.98
2023-02-09T17:16:28.509Z,40.08
2023-02-09T17:22:07.925Z,61.63
2023-02-09T17:41:50.227Z,68.80
2023-02-09T17:44:28.882Z,81.50
2023-02-09T17:46:59.256Z,70.07
2023-02-09T17:49:26.171Z,56.63
2023-02-09T17:51:53.275Z,48.35
2023-02-09T17:54:22.647Z,48.00
2023-02-09T17:56:49.689Z,77.05
2023-02-09T17:59:19.959Z,104.25
2023-02-09T18:01:50.518Z,92.12
2023-02-09T18:04:20.339Z,69.03
2023-02-09T18:09:15.123Z,42.20
2023-02-09T18:11:44.721Z,54.10
2023-02-09T18:14:18.335Z,45.17
2023-02-09T18:16:47.299Z,46.75
2023-02-09T18:19:16.095Z,49.95
2023-02-09T18:21:57.818Z,75.57
2023-02-09T18:24:27.434Z,74.53
2023-02-09T18:26:54.738Z,69.37
2023-02-09T18:29:23.796Z,67.75
2023-02-09T18:31:51.380Z,65.85
2023-02-09T18:34:18.402Z,74.93
2023-02-09T18:36:45.322Z,64.82
2023-02-09T18:39:12.318Z,70.65
2023-02-09T18:41:39.849Z,121.00
2023-02-09T18:44:06.969Z,110.85
2023-02-09T18:46:33.956Z,126.75
2023-02-09T18:49:03.340Z,132.87
2023-02-09T18:51:31.469Z,118.78
2023-02-09T18:53:59.159Z,121.28
2023-02-09T18:56:28.455Z,102.70
2023-02-09T18:58:55.684Z,93.97
2023-02-09T19:01:24.480Z,93.10
2023-02-09T19:03:53.266Z,102.30
2023-02-09T19:06:21.616Z,100.72
2023-02-09T19:08:50.623Z,105.93
2023-02-09T19:11:20.030Z,118.25
2023-02-09T19:14:05.996Z,131.77
2023-02-09T19:16:33.085Z,164.07
2023-02-09T19:19:00.961Z,135.80
2023-02-09T19:21:29.138Z,127.20
2023-02-09T19:23:56.130Z,143.90
2023-02-09T19:26:23.199Z,139.48
2023-02-09T19:28:50.117Z,143.23
2023-02-09T19:31:17.968Z,120.78
2023-02-09T19:33:44.991Z,122.55
2023-02-09T19:36:12.090Z,120.45
2023-02-09T19:38:39.121Z,115.30
2023-02-09T19:41:12.739Z,113.70
2023-02-09T19:43:40.773Z,115.82
2023-02-09T19:46:11.697Z,118.78
2023-02-09T19:48:42.089Z,193.02
2023-02-09T19:51:09.055Z,271.37
2023-02-09T19:53:37.851Z,237.75
2023-02-09T19:56:05.205Z,148.57
2023-02-09T19:58:32.172Z,117.72
2023-02-09T20:00:59.129Z,96.12
2023-02-09T20:03:26.155Z,72.32
2023-02-09T20:05:53.497Z,73.47
2023-02-09T20:08:20.935Z,57.78
2023-02-09T20:10:48.261Z,67.20
2023-02-09T20:13:15.967Z,66.30
2023-02-09T20:15:44.205Z,51.75
2023-02-09T20:18:13.441Z,66.75
2023-02-09T20:20:43.554Z,79.85
2023-02-09T20:23:10.853Z,74.47
2023-02-09T20:25:41.725Z,73.80
2023-02-09T20:28:08.884Z,62.55
2023-02-09T20:30:36.074Z,66.78
2023-02-09T20:33:03.011Z,61.30
2023-02-09T20:35:29.971Z,81.50
2023-02-09T20:37:56.865Z,76.55
2023-02-09T20:40:24.032Z,88.75
2023-02-09T20:43:09.604Z,86.95
2023-02-09T20:45:55.198Z,81.72
2023-02-09T20:48:22.159Z,73.82
2023-02-09T20:50:49.220Z,70.72
2023-02-09T20:53:16.194Z,72.32
2023-02-09T20:55:43.488Z,72.00
2023-02-09T20:58:13.795Z,62.08
2023-02-09T21:00:43.842Z,57.90
2023-02-09T21:03:12.322Z,57.60
2023-02-09T21:05:39.213Z,57.85
2023-02-09T21:08:09.320Z,39.80
2023-02-09T21:10:38.159Z,40.28
2023-02-09T21:13:06.912Z,39.08
2023-02-09T21:15:33.854Z,48.73
2023-02-09T21:18:00.722Z,40.75
2023-02-09T21:20:32.279Z,31.95
2023-02-09T21:22:59.156Z,29.65
2023-02-09T21:25:27.902Z,37.05
2023-02-09T21:27:59.859Z,31.57
2023-02-09T21:30:27.944Z,37.00
2023-02-09T21:32:55.930Z,33.83
2023-02-09T21:35:23.395Z,35.83
2023-02-09T21:37:50.312Z,30.25
2023-02-09T21:40:17.411Z,30.80
2023-02-09T21:42:44.326Z,41.40
2023-02-09T21:45:11.443Z,31.58
2023-02-09T21:47:39.648Z,41.08
2023-02-09T21:50:09.143Z,40.42
2023-02-09T21:52:36.395Z,40.60
2023-02-09T21:55:04.291Z,38.88
2023-02-09T21:57:31.295Z,36.20
2023-02-09T22:00:00.012Z,34.83
2023-02-09T22:02:27.641Z,36.45
2023-02-09T22:04:54.689Z,36.03
2023-02-09T22:07:21.596Z,35.80
2023-02-09T22:09:48.425Z,41.53
2023-02-09T22:12:15.413Z,35.80
2023-02-09T22:14:42.505Z,38.97
2023-02-09T22:17:09.372Z,38.63
2023-02-09T22:19:36.748Z,46.53
2023-02-09T22:22:04.158Z,44.97
2023-02-09T22:24:34.894Z,43.13
2023-02-09T22:27:03.724Z,51.63
2023-02-09T22:29:33.386Z,43.38
2023-02-09T22:32:00.520Z,32.40
2023-02-09T22:34:29.884Z,33.60
2023-02-09T22:36:56.838Z,39.50
2023-02-09T22:39:23.754Z,37.88
2023-02-09T22:41:50.660Z,50.85
2023-02-09T22:44:18.267Z,44.90
2023-02-09T22:46:46.550Z,51.60
2023-02-09T22:49:18.266Z,46.47
2023-02-09T22:51:46.798Z,48.75
2023-02-09T22:54:18.774Z,46.08
2023-02-09T22:56:46.312Z,46.75
2023-02-09T22:59:14.983Z,41.22
2023-02-09T23:01:42.696Z,49.03
2023-02-09T23:04:10.181Z,52.50
2023-02-09T23:06:37.173Z,51.47
2023-02-09T23:09:07.578Z,51.50
2023-02-09T23:11:35.423Z,61.72
2023-02-09T23:14:10.989Z,43.85
2023-02-09T23:16:40.224Z,43.30
2023-02-09T23:19:09.180Z,39.33
2023-02-09T23:21:40.076Z,37.28
2023-02-09T23:24:07.976Z,54.08
2023-02-09T23:26:36.041Z,46.30
2023-02-09T23:29:06.383Z,41.25
2023-02-09T23:31:34.003Z,36.47
2023-02-09T23:34:01.134Z,40.25
2023-02-09T23:36:30.689Z,49.58
2023-02-09T23:39:05.037Z,50.28
2023-02-09T23:41:32.855Z,29.67
2023-02-09T23:44:01.555Z,39.28
2023-02-09T23:46:29.383Z,37.63
2023-02-09T23:48:56.828Z,37.13
2023-02-09T23:51:33.373Z,41.58
2023-02-09T23:54:02.613Z,40.28
2023-02-09T23:56:33.302Z,43.70
2023-02-09T23:59:00.288Z,37.25
